createdAt,value
2022-12-27T00:00:00.289Z,20.26
2022-12-27T00:01:00.469Z,20.26
2022-12-27T00:02:00.575Z,20.26
2022-12-27T00:03:00.620Z,20.27
2022-12-27T00:04:00.704Z,20.27
2022-12-27T00:05:00.743Z,20.27
2022-12-27T00:06:00.844Z,20.27
2022-12-27T00:07:00.905Z,20.26
2022-12-27T00:08:01.021Z,20.26
2022-12-27T00:09:01.075Z,20.26
2022-12-27T00:10:01.161Z,20.26
2022-12-27T00:11:01.254Z,20.25
2022-12-27T00:12:01.318Z,20.25
2022-12-27T00:13:01.387Z,20.25
2022-12-27T00:14:07.545Z,20.25
2022-12-27T00:15:01.519Z,20.25
2022-12-27T00:16:01.676Z,20.25
2022-12-27T00:17:01.698Z,20.25
2022-12-27T00:18:01.796Z,20.25
2022-12-27T00:19:01.911Z,20.25
2022-12-27T00:20:08.471Z,20.25
2022-12-27T00:21:02.077Z,20.25
2022-12-27T00:22:02.152Z,20.25
2022-12-27T00:23:02.241Z,20.25
2022-12-27T00:24:02.313Z,20.25
2022-12-27T00:25:02.419Z,20.25
2022-12-27T00:26:02.462Z,20.25
2022-12-27T00:27:02.520Z,20.26
2022-12-27T00:28:02.621Z,20.26
2022-12-27T00:29:02.684Z,20.25
2022-12-27T00:30:02.772Z,20.25
2022-12-27T00:31:02.867Z,20.25
2022-12-27T00:32:03.022Z,20.25
2022-12-27T00:33:03.037Z,20.25
2022-12-27T00:34:03.112Z,20.26
2022-12-27T00:35:03.243Z,20.26
2022-12-27T00:36:03.279Z,20.26
2022-12-27T00:37:03.381Z,20.26
2022-12-27T00:38:03.472Z,20.26
2022-12-27T00:39:03.543Z,20.26
2022-12-27T00:40:03.640Z,20.26
2022-12-27T00:41:03.709Z,20.26
2022-12-27T00:42:03.784Z,20.26
2022-12-27T00:43:03.847Z,20.26
2022-12-27T00:44:03.950Z,20.26
2022-12-27T00:45:09.978Z,20.26
2022-12-27T00:46:04.127Z,20.26
2022-12-27T00:47:04.176Z,20.26
2022-12-27T00:48:04.255Z,20.26
2022-12-27T00:49:04.355Z,20.26
2022-12-27T00:50:04.451Z,20.26
2022-12-27T00:51:04.508Z,20.26
2022-12-27T00:52:04.615Z,20.26
2022-12-27T00:53:04.697Z,20.26
2022-12-27T00:54:04.805Z,20.26
2022-12-27T00:55:04.902Z,20.25
2022-12-27T00:56:04.969Z,20.25
2022-12-27T00:57:05.039Z,20.25
2022-12-27T00:58:05.147Z,20.25
2022-12-27T00:59:05.215Z,20.26
2022-12-27T01:00:10.099Z,20.26
2022-12-27T01:01:05.515Z,20.25
2022-12-27T01:02:05.544Z,20.25
2022-12-27T01:03:05.589Z,20.24
2022-12-27T01:04:05.689Z,20.24
2022-12-27T01:05:05.733Z,20.24
2022-12-27T01:06:05.854Z,20.24
2022-12-27T01:07:05.935Z,20.24
2022-12-27T01:08:06.008Z,20.24
2022-12-27T01:09:06.104Z,20.25
2022-12-27T01:10:06.204Z,20.25
2022-12-27T01:11:06.295Z,20.25
2022-12-27T01:12:06.378Z,20.25
2022-12-27T01:13:06.451Z,20.25
2022-12-27T01:14:06.572Z,20.25
2022-12-27T01:15:06.629Z,20.24
2022-12-27T01:16:12.690Z,20.24
2022-12-27T01:17:06.791Z,20.24
2022-12-27T01:18:06.864Z,20.24
2022-12-27T01:19:06.953Z,20.25
2022-12-27T01:20:07.037Z,20.25
2022-12-27T01:21:07.099Z,20.24
2022-12-27T01:22:07.187Z,20.24
2022-12-27T01:23:07.301Z,20.24
2022-12-27T01:24:07.368Z,20.24
2022-12-27T01:25:07.458Z,20.24
2022-12-27T01:26:07.538Z,20.24
2022-12-27T01:27:07.627Z,20.24
2022-12-27T01:28:07.726Z,20.24
2022-12-27T01:29:07.809Z,20.25
2022-12-27T01:30:07.905Z,20.25
2022-12-27T01:31:07.979Z,20.25
2022-12-27T01:32:08.098Z,20.25
2022-12-27T01:33:08.142Z,20.25
2022-12-27T01:34:08.246Z,20.25
2022-12-27T01:35:08.312Z,20.25
2022-12-27T01:36:08.403Z,20.25
2022-12-27T01:37:08.501Z,20.25
2022-12-27T01:38:08.573Z,20.24
2022-12-27T01:39:08.691Z,20.24
2022-12-27T01:40:08.741Z,20.24
2022-12-27T01:41:08.805Z,20.23
2022-12-27T01:42:08.870Z,20.23
2022-12-27T01:43:08.965Z,20.24
2022-12-27T01:44:09.065Z,20.24
2022-12-27T01:45:09.171Z,20.24
2022-12-27T01:46:10.153Z,20.24
2022-12-27T01:47:15.298Z,20.24
2022-12-27T01:48:09.422Z,20.23
2022-12-27T01:49:09.500Z,20.22
2022-12-27T01:50:09.618Z,20.22
2022-12-27T01:51:09.694Z,20.22
2022-12-27T01:52:09.780Z,20.22
2022-12-27T01:53:09.855Z,20.21
2022-12-27T01:54:09.909Z,20.21
2022-12-27T01:55:09.997Z,20.21
2022-12-27T01:56:10.084Z,20.21
2022-12-27T01:57:10.128Z,20.21
2022-12-27T01:58:10.201Z,20.21
2022-12-27T01:59:10.279Z,20.21
2022-12-27T02:00:10.386Z,20.20
2022-12-27T02:01:10.675Z,20.20
2022-12-27T02:02:10.709Z,20.20
2022-12-27T02:03:10.681Z,20.20
2022-12-27T02:04:10.693Z,20.20
2022-12-27T02:05:10.783Z,20.20
2022-12-27T02:06:10.849Z,20.20
2022-12-27T02:07:10.949Z,20.20
2022-12-27T02:08:11.017Z,20.20
2022-12-27T02:09:11.101Z,20.19
2022-12-27T02:10:11.183Z,20.19
2022-12-27T02:11:11.282Z,20.19
2022-12-27T02:12:11.389Z,20.19
2022-12-27T02:13:11.457Z,20.18
2022-12-27T02:14:11.544Z,20.18
2022-12-27T02:15:11.614Z,20.18
2022-12-27T02:16:11.687Z,20.18
2022-12-27T02:17:11.794Z,20.18
2022-12-27T02:18:18.110Z,20.18
2022-12-27T02:19:11.935Z,20.18
2022-12-27T02:20:12.014Z,20.17
2022-12-27T02:21:12.089Z,20.17
2022-12-27T02:22:12.173Z,20.16
2022-12-27T02:23:12.256Z,20.16
2022-12-27T02:24:12.345Z,20.16
2022-12-27T02:25:12.415Z,20.16
2022-12-27T02:26:12.486Z,20.16
2022-12-27T02:27:12.548Z,20.16
2022-12-27T02:28:12.641Z,20.17
2022-12-27T02:29:12.757Z,20.17
2022-12-27T02:30:12.806Z,20.17
2022-12-27T02:31:12.950Z,20.17
2022-12-27T02:32:12.980Z,20.17
2022-12-27T02:33:13.072Z,20.17
2022-12-27T02:34:13.136Z,20.17
2022-12-27T02:35:13.270Z,20.17
2022-12-27T02:36:13.308Z,20.17
2022-12-27T02:37:13.385Z,20.17
2022-12-27T02:38:13.471Z,20.16
2022-12-27T02:39:13.551Z,20.16
2022-12-27T02:40:13.674Z,20.16
2022-12-27T02:41:13.742Z,20.16
2022-12-27T02:42:13.825Z,20.16
2022-12-27T02:43:13.933Z,20.15
2022-12-27T02:44:14.030Z,20.15
2022-12-27T02:45:14.119Z,20.15
2022-12-27T02:46:19.860Z,20.14
2022-12-27T02:47:14.280Z,20.14
2022-12-27T02:48:14.353Z,20.14
2022-12-27T02:49:20.414Z,20.14
2022-12-27T02:50:14.508Z,20.14
2022-12-27T02:51:14.625Z,20.14
2022-12-27T02:52:14.662Z,20.13
2022-12-27T02:53:14.751Z,20.13
2022-12-27T02:54:14.833Z,20.13
2022-12-27T02:55:14.920Z,20.13
2022-12-27T02:56:15.026Z,20.14
2022-12-27T02:57:15.128Z,20.14
2022-12-27T02:58:15.190Z,20.14
2022-12-27T02:59:15.291Z,20.14
2022-12-27T03:00:15.363Z,20.14
2022-12-27T03:01:15.640Z,20.14
2022-12-27T03:02:15.741Z,20.14
2022-12-27T03:03:15.638Z,20.14
2022-12-27T03:04:15.692Z,20.14
2022-12-27T03:05:15.775Z,20.14
2022-12-27T03:06:15.854Z,20.14
2022-12-27T03:07:15.956Z,20.14
2022-12-27T03:08:16.051Z,20.13
2022-12-27T03:09:16.102Z,20.13
2022-12-27T03:10:16.176Z,20.13
2022-12-27T03:11:16.245Z,20.12
2022-12-27T03:12:16.345Z,20.12
2022-12-27T03:13:16.453Z,20.12
2022-12-27T03:14:16.539Z,20.12
2022-12-27T03:15:16.580Z,20.12
2022-12-27T03:16:16.730Z,20.12
2022-12-27T03:17:16.754Z,20.12
2022-12-27T03:18:16.854Z,20.12
2022-12-27T03:19:16.939Z,20.12
2022-12-27T03:20:23.148Z,20.11
2022-12-27T03:21:17.073Z,20.11
2022-12-27T03:22:17.148Z,20.11
2022-12-27T03:23:17.234Z,20.11
2022-12-27T03:24:17.316Z,20.11
2022-12-27T03:25:17.401Z,20.11
2022-12-27T03:26:17.472Z,20.12
2022-12-27T03:27:17.516Z,20.12
2022-12-27T03:28:17.609Z,20.12
2022-12-27T03:29:17.694Z,20.12
2022-12-27T03:30:17.798Z,20.11
2022-12-27T03:31:17.912Z,20.11
2022-12-27T03:32:17.992Z,20.11
2022-12-27T03:33:18.072Z,20.11
2022-12-27T03:34:18.141Z,20.11
2022-12-27T03:35:18.205Z,20.11
2022-12-27T03:36:18.287Z,20.12
2022-12-27T03:37:18.343Z,20.12
2022-12-27T03:38:18.446Z,20.12
2022-12-27T03:39:18.489Z,20.11
2022-12-27T03:40:18.576Z,20.11
2022-12-27T03:41:18.634Z,20.10
2022-12-27T03:42:18.725Z,20.10
2022-12-27T03:43:18.826Z,20.10
2022-12-27T03:44:18.872Z,20.10
2022-12-27T03:45:18.943Z,20.10
2022-12-27T03:46:19.031Z,20.11
2022-12-27T03:47:19.105Z,20.11
2022-12-27T03:48:19.171Z,20.10
2022-12-27T03:49:19.279Z,20.10
2022-12-27T03:50:19.321Z,20.10
2022-12-27T03:51:25.427Z,20.10
2022-12-27T03:52:19.485Z,20.10
2022-12-27T03:53:19.553Z,20.09
2022-12-27T03:54:19.675Z,20.09
2022-12-27T03:55:19.737Z,20.09
2022-12-27T03:56:19.838Z,20.09
2022-12-27T03:57:19.895Z,20.09
2022-12-27T03:58:20.007Z,20.09
2022-12-27T03:59:20.083Z,20.09
2022-12-27T04:00:20.167Z,20.10
2022-12-27T04:01:20.322Z,20.10
2022-12-27T04:02:20.589Z,20.10
2022-12-27T04:03:20.535Z,20.10
2022-12-27T04:04:20.507Z,20.10
2022-12-27T04:05:20.573Z,20.11
2022-12-27T04:06:20.652Z,20.11
2022-12-27T04:07:20.732Z,20.11
2022-12-27T04:08:20.802Z,20.11
2022-12-27T04:09:20.878Z,20.11
2022-12-27T04:10:20.987Z,20.11
2022-12-27T04:11:21.074Z,20.11
2022-12-27T04:12:21.119Z,20.11
2022-12-27T04:13:21.194Z,20.11
2022-12-27T04:14:21.256Z,20.11
2022-12-27T04:15:21.359Z,20.11
2022-12-27T04:16:21.455Z,20.11
2022-12-27T04:17:21.525Z,20.11
2022-12-27T04:18:21.595Z,20.10
2022-12-27T04:19:21.680Z,20.10
2022-12-27T04:20:21.760Z,20.10
2022-12-27T04:21:21.850Z,20.10
2022-12-27T04:22:28.180Z,20.11
2022-12-27T04:23:22.054Z,20.11
2022-12-27T04:24:22.102Z,20.11
2022-12-27T04:25:22.182Z,20.11
2022-12-27T04:26:22.277Z,20.11
2022-12-27T04:27:22.356Z,20.11
2022-12-27T04:28:22.495Z,20.11
2022-12-27T04:29:22.543Z,20.11
2022-12-27T04:30:22.620Z,20.11
2022-12-27T04:31:22.760Z,20.12
2022-12-27T04:32:22.757Z,20.12
2022-12-27T04:33:22.855Z,20.12
2022-12-27T04:34:22.985Z,20.12
2022-12-27T04:35:23.047Z,20.12
2022-12-27T04:36:23.131Z,20.12
2022-12-27T04:37:23.234Z,20.12
2022-12-27T04:38:23.314Z,20.12
2022-12-27T04:39:23.418Z,20.12
2022-12-27T04:40:23.511Z,20.12
2022-12-27T04:41:23.559Z,20.12
2022-12-27T04:42:23.639Z,20.11
2022-12-27T04:43:23.709Z,20.11
2022-12-27T04:44:23.765Z,20.12
2022-12-27T04:45:23.831Z,20.12
2022-12-27T04:46:23.955Z,20.12
2022-12-27T04:47:23.997Z,20.12
2022-12-27T04:48:24.062Z,20.12
2022-12-27T04:49:24.138Z,20.12
2022-12-27T04:50:24.216Z,20.12
2022-12-27T04:51:24.308Z,20.12
2022-12-27T04:52:24.419Z,20.12
2022-12-27T04:53:30.446Z,20.12
2022-12-27T04:54:24.538Z,20.12
2022-12-27T04:55:24.627Z,20.11
2022-12-27T04:56:24.697Z,20.12
2022-12-27T04:57:24.803Z,20.12
2022-12-27T04:58:24.876Z,20.12
2022-12-27T04:59:24.951Z,20.12
2022-12-27T05:00:25.028Z,20.12
2022-12-27T05:01:25.154Z,20.12
2022-12-27T05:02:25.380Z,20.11
2022-12-27T05:03:25.336Z,20.11
2022-12-27T05:04:25.373Z,20.11
2022-12-27T05:05:25.484Z,20.11
2022-12-27T05:06:25.568Z,20.11
2022-12-27T05:07:25.636Z,20.11
2022-12-27T05:08:25.732Z,20.11
2022-12-27T05:09:25.790Z,20.10
2022-12-27T05:10:25.875Z,20.11
2022-12-27T05:11:25.935Z,20.11
2022-12-27T05:12:26.017Z,20.13
2022-12-27T05:13:26.099Z,20.14
2022-12-27T05:14:26.178Z,20.15
2022-12-27T05:15:26.229Z,20.17
2022-12-27T05:16:26.335Z,20.18
2022-12-27T05:17:26.353Z,20.19
2022-12-27T05:18:26.452Z,20.20
2022-12-27T05:19:26.568Z,20.20
2022-12-27T05:20:26.668Z,20.21
2022-12-27T05:21:26.706Z,20.22
2022-12-27T05:22:26.798Z,20.22
2022-12-27T05:23:26.873Z,20.23
2022-12-27T05:24:33.216Z,20.23
2022-12-27T05:25:27.034Z,20.23
2022-12-27T05:26:27.107Z,20.23
2022-12-27T05:27:27.187Z,20.24
2022-12-27T05:28:27.294Z,20.24
2022-12-27T05:29:27.364Z,20.24
2022-12-27T05:30:27.462Z,20.25
2022-12-27T05:31:27.567Z,20.25
2022-12-27T05:32:27.615Z,20.25
2022-12-27T05:33:27.699Z,20.25
2022-12-27T05:34:27.804Z,20.25
2022-12-27T05:35:27.874Z,20.25
2022-12-27T05:36:27.992Z,20.25
2022-12-27T05:37:28.043Z,20.25
2022-12-27T05:38:28.132Z,20.25
2022-12-27T05:39:28.219Z,20.26
2022-12-27T05:40:28.287Z,20.26
2022-12-27T05:41:28.355Z,20.27
2022-12-27T05:42:28.443Z,20.27
2022-12-27T05:43:28.525Z,20.28
2022-12-27T05:44:28.590Z,20.28
2022-12-27T05:45:28.678Z,20.28
2022-12-27T05:46:28.787Z,20.28
2022-12-27T05:47:28.857Z,20.28
2022-12-27T05:48:28.904Z,20.28
2022-12-27T05:49:28.964Z,20.29
2022-12-27T05:50:29.051Z,20.29
2022-12-27T05:51:29.137Z,20.29
2022-12-27T05:52:29.208Z,20.29
2022-12-27T05:53:29.280Z,20.30
2022-12-27T05:54:29.368Z,20.30
2022-12-27T05:55:35.473Z,20.30
2022-12-27T05:56:29.565Z,20.30
2022-12-27T05:57:29.653Z,20.30
2022-12-27T05:58:29.751Z,20.30
2022-12-27T05:59:29.820Z,20.30
2022-12-27T06:00:29.930Z,20.30
2022-12-27T06:01:30.168Z,20.30
2022-12-27T06:02:30.315Z,20.31
2022-12-27T06:03:30.308Z,20.31
2022-12-27T06:04:30.308Z,20.31
2022-12-27T06:05:30.349Z,20.31
2022-12-27T06:06:30.448Z,20.31
2022-12-27T06:07:30.525Z,20.32
2022-12-27T06:08:30.587Z,20.32
2022-12-27T06:09:30.690Z,20.32
2022-12-27T06:10:30.755Z,20.32
2022-12-27T06:11:30.843Z,20.32
2022-12-27T06:12:30.951Z,20.32
2022-12-27T06:13:31.026Z,20.32
2022-12-27T06:14:31.112Z,20.32
2022-12-27T06:15:31.216Z,20.32
2022-12-27T06:16:31.309Z,20.32
2022-12-27T06:17:31.372Z,20.32
2022-12-27T06:18:31.456Z,20.33
2022-12-27T06:19:31.554Z,20.33
2022-12-27T06:20:31.663Z,20.33
2022-12-27T06:21:31.731Z,20.33
2022-12-27T06:22:31.812Z,20.33
2022-12-27T06:23:31.903Z,20.33
2022-12-27T06:24:32.002Z,20.33
2022-12-27T06:25:32.084Z,20.34
2022-12-27T06:26:38.248Z,20.34
2022-12-27T06:27:32.250Z,20.34
2022-12-27T06:28:32.316Z,20.34
2022-12-27T06:29:32.445Z,20.34
2022-12-27T06:30:36.159Z,20.34
2022-12-27T06:31:32.592Z,20.34
2022-12-27T06:32:32.673Z,20.34
2022-12-27T06:33:32.736Z,20.34
2022-12-27T06:34:32.822Z,20.34
2022-12-27T06:35:32.910Z,20.34
2022-12-27T06:36:32.998Z,20.35
2022-12-27T06:37:33.065Z,20.35
2022-12-27T06:38:33.162Z,20.35
2022-12-27T06:39:33.249Z,20.36
2022-12-27T06:40:33.307Z,20.36
2022-12-27T06:41:33.393Z,20.36
2022-12-27T06:42:33.458Z,20.36
2022-12-27T06:43:33.547Z,20.36
2022-12-27T06:44:33.616Z,20.37
2022-12-27T06:45:33.727Z,20.37
2022-12-27T06:46:33.783Z,20.37
2022-12-27T06:47:33.847Z,20.37
2022-12-27T06:48:33.938Z,20.37
2022-12-27T06:49:34.036Z,20.37
2022-12-27T06:50:34.090Z,20.37
2022-12-27T06:51:34.159Z,20.37
2022-12-27T06:52:34.241Z,20.37
2022-12-27T06:53:34.343Z,20.37
2022-12-27T06:54:34.400Z,20.37
2022-12-27T06:55:34.490Z,20.37
2022-12-27T06:56:34.560Z,20.38
2022-12-27T06:57:40.631Z,20.38
2022-12-27T06:58:34.731Z,20.38
2022-12-27T06:59:34.817Z,20.38
2022-12-27T07:00:34.898Z,20.38
2022-12-27T07:01:35.070Z,20.38
2022-12-27T07:02:35.174Z,20.38
2022-12-27T07:03:35.143Z,20.38
2022-12-27T07:04:35.215Z,20.38
2022-12-27T07:05:35.314Z,20.38
2022-12-27T07:06:35.417Z,20.39
2022-12-27T07:07:35.581Z,20.39
2022-12-27T07:08:35.588Z,20.39
2022-12-27T07:09:35.644Z,20.39
2022-12-27T07:10:35.703Z,20.39
2022-12-27T07:11:35.782Z,20.39
2022-12-27T07:12:37.011Z,20.39
2022-12-27T07:13:36.015Z,20.39
2022-12-27T07:14:36.067Z,20.39
2022-12-27T07:15:36.139Z,20.40
2022-12-27T07:16:36.479Z,20.40
2022-12-27T07:17:36.301Z,20.40
2022-12-27T07:18:36.368Z,20.40
2022-12-27T07:19:36.482Z,20.40
2022-12-27T07:20:36.517Z,20.40
2022-12-27T07:21:36.650Z,20.40
2022-12-27T07:22:36.715Z,20.41
2022-12-27T07:23:36.808Z,20.41
2022-12-27T07:24:36.894Z,20.41
2022-12-27T07:25:36.998Z,20.41
2022-12-27T07:26:37.075Z,20.41
2022-12-27T07:27:37.139Z,20.42
2022-12-27T07:28:43.206Z,20.42
2022-12-27T07:29:43.511Z,20.42
2022-12-27T07:30:37.377Z,20.41
2022-12-27T07:31:37.504Z,20.41
2022-12-27T07:32:37.549Z,20.41
2022-12-27T07:33:37.635Z,20.41
2022-12-27T07:34:37.746Z,20.42
2022-12-27T07:35:43.463Z,20.42
2022-12-27T07:36:37.877Z,20.42
2022-12-27T07:37:37.977Z,20.42
2022-12-27T07:38:38.019Z,20.42
2022-12-27T07:39:38.122Z,20.43
2022-12-27T07:40:38.195Z,20.43
2022-12-27T07:41:38.301Z,20.43
2022-12-27T07:42:38.368Z,20.43
2022-12-27T07:43:38.482Z,20.43
2022-12-27T07:44:38.548Z,20.43
2022-12-27T07:45:38.660Z,20.44
2022-12-27T07:46:38.704Z,20.44
2022-12-27T07:47:38.786Z,20.44
2022-12-27T07:48:38.886Z,20.44
2022-12-27T07:49:38.986Z,20.44
2022-12-27T07:50:39.022Z,20.45
2022-12-27T07:51:39.106Z,20.45
2022-12-27T07:52:39.172Z,20.45
2022-12-27T07:53:39.259Z,20.46
2022-12-27T07:54:39.344Z,20.46
2022-12-27T07:55:39.446Z,20.46
2022-12-27T07:56:39.515Z,20.46
2022-12-27T07:57:39.628Z,20.46
2022-12-27T07:58:39.680Z,20.47
2022-12-27T07:59:45.726Z,20.47
2022-12-27T08:00:39.853Z,20.47
2022-12-27T08:01:39.990Z,20.47
2022-12-27T08:02:40.023Z,20.48
2022-12-27T08:03:40.184Z,20.48
2022-12-27T08:04:40.176Z,20.48
2022-12-27T08:05:40.262Z,20.48
2022-12-27T08:06:40.365Z,20.48
2022-12-27T08:07:40.449Z,20.49
2022-12-27T08:08:40.552Z,20.49
2022-12-27T08:09:40.634Z,20.50
2022-12-27T08:10:40.722Z,20.51
2022-12-27T08:11:40.814Z,20.51
2022-12-27T08:12:40.856Z,20.51
2022-12-27T08:13:40.953Z,20.52
2022-12-27T08:14:40.999Z,20.52
2022-12-27T08:15:41.089Z,20.53
2022-12-27T08:16:41.193Z,20.53
2022-12-27T08:17:41.280Z,20.54
2022-12-27T08:18:41.323Z,20.54
2022-12-27T08:19:41.419Z,20.55
2022-12-27T08:20:41.504Z,20.55
2022-12-27T08:21:41.590Z,20.56
2022-12-27T08:22:41.711Z,20.56
2022-12-27T08:23:41.765Z,20.56
2022-12-27T08:24:41.842Z,20.57
2022-12-27T08:25:48.396Z,20.57
2022-12-27T08:26:42.032Z,20.57
2022-12-27T08:27:42.132Z,20.57
2022-12-27T08:28:42.258Z,20.58
2022-12-27T08:29:42.320Z,20.58
2022-12-27T08:30:48.426Z,20.59
2022-12-27T08:31:42.451Z,20.59
2022-12-27T08:32:42.511Z,20.59
2022-12-27T08:33:42.629Z,20.59
2022-12-27T08:34:42.680Z,20.60
2022-12-27T08:35:52.707Z,20.60
2022-12-27T08:36:55.025Z,20.60
2022-12-27T08:37:42.939Z,20.60
2022-12-27T08:38:42.999Z,20.61
2022-12-27T08:39:43.077Z,20.61
2022-12-27T08:40:43.126Z,20.62
2022-12-27T08:41:43.223Z,20.62
2022-12-27T08:42:43.307Z,20.63
2022-12-27T08:43:43.385Z,20.63
2022-12-27T08:44:43.480Z,20.63
2022-12-27T08:45:43.573Z,20.64
2022-12-27T08:46:43.740Z,20.64
2022-12-27T08:47:43.727Z,20.65
2022-12-27T08:48:43.800Z,20.65
2022-12-27T08:49:43.884Z,20.65
2022-12-27T08:50:43.999Z,20.66
2022-12-27T08:51:44.089Z,20.66
2022-12-27T08:52:44.171Z,20.66
2022-12-27T08:53:44.256Z,20.67
2022-12-27T08:54:44.354Z,20.67
2022-12-27T08:55:44.427Z,20.67
2022-12-27T08:56:44.540Z,20.67
2022-12-27T08:57:44.605Z,20.68
2022-12-27T08:58:44.698Z,20.68
2022-12-27T08:59:44.762Z,20.68
2022-12-27T09:00:44.835Z,20.68
2022-12-27T09:01:51.446Z,20.68
2022-12-27T09:02:45.159Z,20.68
2022-12-27T09:03:45.111Z,20.67
2022-12-27T09:04:45.193Z,20.67
2022-12-27T09:05:45.287Z,20.67
2022-12-27T09:06:45.377Z,20.68
2022-12-27T09:07:45.484Z,20.68
2022-12-27T09:08:45.529Z,20.68
2022-12-27T09:09:45.621Z,20.68
2022-12-27T09:10:45.705Z,20.68
2022-12-27T09:11:45.783Z,20.69
2022-12-27T09:12:45.900Z,20.69
2022-12-27T09:13:46.014Z,20.69
2022-12-27T09:14:46.032Z,20.70
2022-12-27T09:15:46.158Z,20.70
2022-12-27T09:16:46.222Z,20.70
2022-12-27T09:17:46.329Z,20.70
2022-12-27T09:18:46.424Z,20.70
2022-12-27T09:19:46.505Z,20.70
2022-12-27T09:20:46.578Z,20.71
2022-12-27T09:21:46.664Z,20.71
2022-12-27T09:22:46.748Z,20.71
2022-12-27T09:23:46.866Z,20.72
2022-12-27T09:24:46.943Z,20.72
2022-12-27T09:25:47.080Z,20.72
2022-12-27T09:26:47.142Z,20.72
2022-12-27T09:27:47.212Z,20.73
2022-12-27T09:28:47.296Z,20.73
2022-12-27T09:29:48.543Z,20.73
2022-12-27T09:30:47.510Z,20.73
2022-12-27T09:31:47.498Z,20.73
2022-12-27T09:32:53.541Z,20.73
2022-12-27T09:33:47.653Z,20.73
2022-12-27T09:34:47.740Z,20.72
2022-12-27T09:35:47.821Z,20.72
2022-12-27T09:36:47.908Z,20.72
2022-12-27T09:37:48.026Z,20.73
2022-12-27T09:38:48.053Z,20.73
2022-12-27T09:39:48.144Z,20.73
2022-12-27T09:40:48.226Z,20.73
2022-12-27T09:43:01.991Z,20.73
2022-12-27T09:43:48.482Z,20.73
2022-12-27T09:44:48.526Z,20.73
2022-12-27T09:45:48.633Z,20.73
2022-12-27T09:46:48.711Z,20.73
2022-12-27T09:47:48.777Z,20.74
2022-12-27T09:48:48.855Z,20.74
2022-12-27T09:49:48.939Z,20.74
2022-12-27T09:50:48.998Z,20.74
2022-12-27T09:51:49.090Z,20.74
2022-12-27T09:52:49.163Z,20.74
2022-12-27T09:53:49.251Z,20.74
2022-12-27T09:54:49.329Z,20.74
2022-12-27T09:55:49.410Z,20.74
2022-12-27T09:57:18.402Z,20.74
2022-12-27T09:57:49.599Z,20.74
2022-12-27T09:58:50.462Z,20.74
2022-12-27T09:59:49.749Z,20.74
2022-12-27T10:00:49.851Z,20.74
2022-12-27T10:01:50.022Z,20.74
2022-12-27T10:02:50.053Z,20.74
2022-12-27T10:03:56.524Z,20.74
2022-12-27T10:05:19.213Z,20.74
2022-12-27T10:05:56.079Z,20.74
2022-12-27T10:06:50.367Z,20.73
2022-12-27T10:07:50.413Z,20.73
2022-12-27T10:08:50.495Z,20.74
2022-12-27T10:09:50.560Z,20.74
2022-12-27T10:10:50.642Z,20.74
2022-12-27T10:11:50.757Z,20.74
2022-12-27T10:12:50.820Z,20.74
2022-12-27T10:13:50.910Z,20.75
2022-12-27T10:14:50.999Z,20.75
2022-12-27T10:15:51.179Z,20.75
2022-12-27T10:16:51.199Z,20.75
2022-12-27T10:17:53.528Z,20.75
2022-12-27T10:18:51.379Z,20.75
2022-12-27T10:19:51.470Z,20.75
2022-12-27T10:20:51.577Z,20.75
2022-12-27T10:21:51.620Z,20.75
2022-12-27T10:22:51.714Z,20.75
2022-12-27T10:23:51.801Z,20.75
2022-12-27T10:24:51.843Z,20.75
2022-12-27T10:25:51.926Z,20.75
2022-12-27T10:26:51.999Z,20.75
2022-12-27T10:27:52.103Z,20.75
2022-12-27T10:28:56.811Z,20.75
2022-12-27T10:29:52.284Z,20.75
2022-12-27T10:30:52.386Z,20.74
2022-12-27T10:31:52.389Z,20.74
2022-12-27T10:32:52.484Z,20.74
2022-12-27T10:33:52.597Z,20.74
2022-12-27T10:34:58.642Z,20.74
2022-12-27T10:35:52.736Z,20.74
2022-12-27T10:36:52.804Z,20.73
2022-12-27T10:37:52.883Z,20.73
2022-12-27T10:38:52.987Z,20.74
2022-12-27T10:39:53.081Z,20.74
2022-12-27T10:40:53.146Z,20.74
2022-12-27T10:41:53.215Z,20.74
2022-12-27T10:42:53.265Z,20.74
2022-12-27T10:43:53.358Z,20.74
2022-12-27T10:44:53.438Z,20.74
2022-12-27T10:45:53.554Z,20.74
2022-12-27T10:46:53.639Z,20.73
2022-12-27T10:47:53.689Z,20.73
2022-12-27T10:49:20.204Z,20.73
2022-12-27T10:49:53.843Z,20.72
2022-12-27T10:50:53.928Z,20.72
2022-12-27T10:51:54.029Z,20.72
2022-12-27T10:52:57.532Z,20.72
2022-12-27T10:53:54.188Z,20.72
2022-12-27T10:54:54.260Z,20.72
2022-12-27T10:55:54.418Z,20.72
2022-12-27T10:56:54.444Z,20.72
2022-12-27T10:57:54.516Z,20.72
2022-12-27T10:58:58.867Z,20.71
2022-12-27T10:59:54.659Z,20.71
2022-12-27T11:00:54.911Z,20.70
2022-12-27T11:01:54.905Z,20.70
2022-12-27T11:02:55.037Z,20.70
2022-12-27T11:03:54.989Z,20.70
2022-12-27T11:04:55.041Z,20.70
2022-12-27T11:06:01.106Z,20.70
2022-12-27T11:06:55.190Z,20.70
2022-12-27T11:07:55.287Z,20.70
2022-12-27T11:08:55.402Z,20.70
2022-12-27T11:09:55.479Z,20.70
2022-12-27T11:10:55.514Z,20.69
2022-12-27T11:11:55.597Z,20.69
2022-12-27T11:12:55.685Z,20.70
2022-12-27T11:13:55.770Z,20.70
2022-12-27T11:14:55.851Z,20.70
2022-12-27T11:15:58.762Z,20.70
2022-12-27T11:16:56.001Z,20.70
2022-12-27T11:17:56.084Z,20.69
2022-12-27T11:18:56.158Z,20.69
2022-12-27T11:19:56.221Z,20.69
2022-12-27T11:20:56.304Z,20.69
2022-12-27T11:21:56.415Z,20.69
2022-12-27T11:22:56.459Z,20.69
2022-12-27T11:23:56.560Z,20.69
2022-12-27T11:24:56.651Z,20.68
2022-12-27T11:25:56.710Z,20.68
2022-12-27T11:26:56.934Z,20.68
2022-12-27T11:27:57.416Z,20.68
2022-12-27T11:28:56.943Z,20.68
2022-12-27T11:29:57.026Z,20.68
2022-12-27T11:30:57.123Z,20.68
2022-12-27T11:31:57.233Z,20.68
2022-12-27T11:32:57.299Z,20.67
2022-12-27T11:33:57.347Z,20.67
2022-12-27T11:34:57.411Z,20.67
2022-12-27T11:35:57.494Z,20.68
2022-12-27T11:37:03.534Z,20.68
2022-12-27T11:37:57.690Z,20.68
2022-12-27T11:38:57.743Z,20.67
2022-12-27T11:39:57.810Z,20.67
2022-12-27T11:40:57.895Z,20.67
2022-12-27T11:41:57.988Z,20.67
2022-12-27T11:42:58.067Z,20.67
2022-12-27T11:43:58.157Z,20.67
2022-12-27T11:44:58.233Z,20.67
2022-12-27T11:45:58.337Z,20.67
2022-12-27T11:46:59.476Z,20.67
2022-12-27T11:47:58.516Z,20.67
2022-12-27T11:48:58.619Z,20.67
2022-12-27T11:49:58.648Z,20.67
2022-12-27T11:50:58.717Z,20.66
2022-12-27T11:51:58.793Z,20.67
2022-12-27T11:52:58.896Z,20.67
2022-12-27T11:53:58.980Z,20.67
2022-12-27T11:54:59.088Z,20.67
2022-12-27T11:55:59.135Z,20.67
2022-12-27T11:56:59.224Z,20.67
2022-12-27T11:57:59.332Z,20.67
2022-12-27T11:58:59.414Z,20.66
2022-12-27T11:59:59.514Z,20.66
2022-12-27T12:01:05.297Z,20.66
2022-12-27T12:01:59.793Z,20.66
2022-12-27T12:02:59.912Z,20.66
2022-12-27T12:03:59.892Z,20.66
2022-12-27T12:04:59.929Z,20.66
2022-12-27T12:06:00.011Z,20.67
2022-12-27T12:07:00.093Z,20.66
2022-12-27T12:08:06.161Z,20.67
2022-12-27T12:09:00.291Z,20.67
2022-12-27T12:10:00.332Z,20.67
2022-12-27T12:11:00.431Z,20.67
2022-12-27T12:12:00.519Z,20.67
2022-12-27T12:13:00.569Z,20.66
2022-12-27T12:14:00.891Z,20.67
2022-12-27T12:15:00.739Z,20.67
2022-12-27T12:16:00.824Z,20.67
2022-12-27T12:17:01.555Z,20.67
2022-12-27T12:18:01.020Z,20.67
2022-12-27T12:19:01.068Z,20.67
2022-12-27T12:20:01.167Z,20.67
2022-12-27T12:21:01.252Z,20.67
2022-12-27T12:22:01.343Z,20.67
2022-12-27T12:23:01.428Z,20.68
2022-12-27T12:24:01.545Z,20.68
2022-12-27T12:25:01.573Z,20.68
2022-12-27T12:26:01.666Z,20.68
2022-12-27T12:27:01.747Z,20.68
2022-12-27T12:28:01.825Z,20.68
2022-12-27T12:29:01.927Z,20.69
2022-12-27T12:30:02.049Z,20.69
2022-12-27T12:31:02.090Z,20.69
2022-12-27T12:32:02.216Z,20.69
2022-12-27T12:33:02.239Z,20.69
2022-12-27T12:34:02.318Z,20.70
2022-12-27T12:35:02.422Z,20.70
2022-12-27T12:36:02.488Z,20.70
2022-12-27T12:37:02.578Z,20.70
2022-12-27T12:38:02.656Z,20.70
2022-12-27T12:39:08.712Z,20.69
2022-12-27T12:40:02.835Z,20.69
2022-12-27T12:41:02.917Z,20.69
2022-12-27T12:42:03.016Z,20.69
2022-12-27T12:43:03.067Z,20.69
2022-12-27T12:44:03.182Z,20.69
2022-12-27T12:45:03.227Z,20.69
2022-12-27T12:46:03.389Z,20.69
2022-12-27T12:47:03.419Z,20.70
2022-12-27T12:48:03.512Z,20.70
2022-12-27T12:49:03.581Z,20.70
2022-12-27T12:50:07.843Z,20.70
2022-12-27T12:51:03.743Z,20.70
2022-12-27T12:52:03.832Z,20.70
2022-12-27T12:53:03.933Z,20.71
2022-12-27T12:54:04.006Z,20.71